sensor_id;sensor_type;location;lat;lon;timestamp;P1;durP1;ratioP1;P2;durP2;ratioP2
37907;SDS011;23740;51.550;6.846;2023-09-08T00:01:04;6.60;;;5.72;;
37907;SDS011;23740;51.550;6.846;2023-09-08T00:03:32;7.05;;;5.32;;
37907;SDS011;23740;51.550;6.846;2023-09-08T00:06:00;5.60;;;4.57;;
37907;SDS011;23740;51.550;6.846;2023-09-08T00:08:28;6.07;;;5.40;;
37907;SDS011;23740;51.550;6.846;2023-09-08T00:10:56;7.05;;;5.28;;
37907;SDS011;23740;51.550;6.846;2023-09-08T00:17:12;6.53;;;5.50;;
37907;SDS011;23740;51.550;6.846;2023-09-08T00:19:40;7.78;;;5.20;;
37907;SDS011;23740;51.550;6.846;2023-09-08T00:22:08;6.80;;;5.57;;
37907;SDS011;23740;51.550;6.846;2023-09-08T00:24:36;7.30;;;5.30;;
37907;SDS011;23740;51.550;6.846;2023-09-08T00:27:04;6.22;;;5.18;;
37907;SDS011;23740;51.550;6.846;2023-09-08T07:52:50;6.28;;;4.88;;
37907;SDS011;23740;51.550;6.846;2023-09-08T07:55:17;6.30;;;5.38;;
37907;SDS011;23740;51.550;6.846;2023-09-08T07:57:44;6.82;;;5.50;;
37907;SDS011;23740;51.550;6.846;2023-09-08T08:00:11;6.50;;;5.80;;
37907;SDS011;23740;51.550;6.846;2023-09-08T08:02:39;8.90;;;5.68;;
37907;SDS011;23740;51.550;6.846;2023-09-08T08:05:07;6.35;;;5.70;;
37907;SDS011;23740;51.550;6.846;2023-09-08T08:07:35;7.32;;;5.93;;
37907;SDS011;23740;51.550;6.846;2023-09-08T08:10:02;7.03;;;6.43;;
37907;SDS011;23740;51.550;6.846;2023-09-08T08:12:29;6.53;;;5.95;;
37907;SDS011;23740;51.550;6.846;2023-09-08T08:14:56;7.30;;;6.70;;
37907;SDS011;23740;51.550;6.846;2023-09-08T08:17:22;6.70;;;6.20;;
37907;SDS011;23740;51.550;6.846;2023-09-08T08:19:50;6.95;;;6.35;;
37907;SDS011;23740;51.550;6.846;2023-09-08T08:22:16;8.07;;;7.38;;
37907;SDS011;23740;51.550;6.846;2023-09-08T08:24:43;7.53;;;6.82;;
37907;SDS011;23740;51.550;6.846;2023-09-08T08:27:10;6.68;;;6.10;;
37907;SDS011;23740;51.550;6.846;2023-09-08T08:29:36;8.23;;;7.53;;
37907;SDS011;23740;51.550;6.846;2023-09-08T08:32:02;7.60;;;6.90;;
37907;SDS011;23740;51.550;6.846;2023-09-08T08:34:29;7.63;;;6.93;;
37907;SDS011;23740;51.550;6.846;2023-09-08T08:36:56;7.25;;;6.57;;
37907;SDS011;23740;51.550;6.846;2023-09-08T08:39:22;7.97;;;6.65;;
37907;SDS011;23740;51.550;6.846;2023-09-08T08:41:48;7.03;;;6.35;;
37907;SDS011;23740;51.550;6.846;2023-09-08T08:44:15;6.65;;;6.15;;
37907;SDS011;23740;51.550;6.846;2023-09-08T08:46:43;7.53;;;6.72;;
37907;SDS011;23740;51.550;6.846;2023-09-08T08:49:11;8.40;;;7.00;;
37907;SDS011;23740;51.550;6.846;2023-09-08T08:51:40;11.32;;;9.30;;
37907;SDS011;23740;51.550;6.846;2023-09-08T08:54:08;7.97;;;6.38;;
37907;SDS011;23740;51.550;6.846;2023-09-08T08:56:35;6.97;;;6.30;;
37907;SDS011;23740;51.550;6.846;2023-09-08T08:59:05;8.50;;;7.70;;
37907;SDS011;23740;51.550;6.846;2023-09-08T09:01:32;7.30;;;6.15;;
37907;SDS011;23740;51.550;6.846;2023-09-08T09:03:58;7.45;;;5.80;;
37907;SDS011;23740;51.550;6.846;2023-09-08T09:06:25;7.30;;;5.47;;
37907;SDS011;23740;51.550;6.846;2023-09-08T09:08:55;7.15;;;6.55;;
37907;SDS011;23740;51.550;6.846;2023-09-08T09:11:22;7.47;;;6.78;;
37907;SDS011;23740;51.550;6.846;2023-09-08T09:13:48;6.50;;;5.90;;
37907;SDS011;23740;51.550;6.846;2023-09-08T09:16:15;6.15;;;5.65;;
37907;SDS011;23740;51.550;6.846;2023-09-08T09:18:53;5.68;;;5.28;;
37907;SDS011;23740;51.550;6.846;2023-09-08T09:21:21;5.03;;;4.47;;
37907;SDS011;23740;51.550;6.846;2023-09-08T09:23:47;6.35;;;5.68;;
37907;SDS011;23740;51.550;6.846;2023-09-08T09:26:22;6.07;;;5.65;;
37907;SDS011;23740;51.550;6.846;2023-09-08T09:28:49;6.82;;;6.22;;
37907;SDS011;23740;51.550;6.846;2023-09-08T09:31:17;6.30;;;5.82;;
37907;SDS011;23740;51.550;6.846;2023-09-08T09:33:44;6.68;;;6.07;;
37907;SDS011;23740;51.550;6.846;2023-09-08T09:36:15;5.55;;;5.05;;
37907;SDS011;23740;51.550;6.846;2023-09-08T09:38:46;5.32;;;4.90;;
37907;SDS011;23740;51.550;6.846;2023-09-08T09:41:14;5.72;;;5.22;;
37907;SDS011;23740;51.550;6.846;2023-09-08T09:43:41;5.25;;;4.85;;
37907;SDS011;23740;51.550;6.846;2023-09-08T09:46:09;5.80;;;5.25;;
37907;SDS011;23740;51.550;6.846;2023-09-08T09:48:36;5.88;;;5.38;;
37907;SDS011;23740;51.550;6.846;2023-09-08T09:51:15;6.28;;;5.68;;
37907;SDS011;23740;51.550;6.846;2023-09-08T09:53:42;4.97;;;4.57;;
37907;SDS011;23740;51.550;6.846;2023-09-08T09:56:09;5.38;;;4.35;;
37907;SDS011;23740;51.550;6.846;2023-09-08T09:58:37;5.05;;;4.57;;
37907;SDS011;23740;51.550;6.846;2023-09-08T10:01:04;5.40;;;5.00;;
37907;SDS011;23740;51.550;6.846;2023-09-08T10:03:31;5.35;;;4.85;;
37907;SDS011;23740;51.550;6.846;2023-09-08T10:05:59;5.90;;;5.50;;
37907;SDS011;23740;51.550;6.846;2023-09-08T10:08:27;6.00;;;5.60;;
37907;SDS011;23740;51.550;6.846;2023-09-08T10:10:54;6.45;;;6.00;;
37907;SDS011;23740;51.550;6.846;2023-09-08T10:13:23;6.32;;;5.78;;
37907;SDS011;23740;51.550;6.846;2023-09-08T10:15:53;5.80;;;5.32;;
37907;SDS011;23740;51.550;6.846;2023-09-08T10:18:23;5.80;;;5.40;;
37907;SDS011;23740;51.550;6.846;2023-09-08T10:20:50;6.25;;;5.65;;
37907;SDS011;23740;51.550;6.846;2023-09-08T10:23:19;6.13;;;5.72;;
37907;SDS011;23740;51.550;6.846;2023-09-08T10:25:50;5.65;;;5.15;;
37907;SDS011;23740;51.550;6.846;2023-09-08T10:28:20;5.93;;;5.53;;
37907;SDS011;23740;51.550;6.846;2023-09-08T10:30:48;6.53;;;5.97;;
37907;SDS011;23740;51.550;6.846;2023-09-08T10:33:16;6.25;;;5.85;;
37907;SDS011;23740;51.550;6.846;2023-09-08T10:35:44;6.72;;;6.25;;
37907;SDS011;23740;51.550;6.846;2023-09-08T10:38:24;6.72;;;6.22;;
37907;SDS011;23740;51.550;6.846;2023-09-08T10:44:23;6.60;;;6.10;;
37907;SDS011;23740;51.550;6.846;2023-09-08T10:49:59;5.47;;;5.07;;
37907;SDS011;23740;51.550;6.846;2023-09-08T10:52:27;6.93;;;6.32;;
37907;SDS011;23740;51.550;6.846;2023-09-08T10:54:55;5.55;;;5.15;;
37907;SDS011;23740;51.550;6.846;2023-09-08T10:57:23;6.18;;;5.35;;
37907;SDS011;23740;51.550;6.846;2023-09-08T10:59:53;6.32;;;5.82;;
37907;SDS011;23740;51.550;6.846;2023-09-08T11:02:34;7.22;;;6.22;;
37907;SDS011;23740;51.550;6.846;2023-09-08T11:05:06;6.63;;;6.07;;
37907;SDS011;23740;51.550;6.846;2023-09-08T11:07:35;5.93;;;5.43;;
37907;SDS011;23740;51.550;6.846;2023-09-08T11:10:04;6.28;;;5.72;;
37907;SDS011;23740;51.550;6.846;2023-09-08T11:12:34;6.55;;;6.03;;
37907;SDS011;23740;51.550;6.846;2023-09-08T11:15:02;6.28;;;5.63;;
37907;SDS011;23740;51.550;6.846;2023-09-08T11:17:32;5.78;;;5.20;;
37907;SDS011;23740;51.550;6.846;2023-09-08T11:20:01;6.28;;;5.70;;
37907;SDS011;23740;51.550;6.846;2023-09-08T11:22:36;6.30;;;5.55;;
37907;SDS011;23740;51.550;6.846;2023-09-08T11:25:04;6.60;;;6.05;;
37907;SDS011;23740;51.550;6.846;2023-09-08T11:27:34;7.18;;;6.68;;
37907;SDS011;23740;51.550;6.846;2023-09-08T11:30:02;5.93;;;5.43;;
37907;SDS011;23740;51.550;6.846;2023-09-08T11:32:31;7.15;;;6.55;;
37907;SDS011;23740;51.550;6.846;2023-09-08T11:35:01;5.82;;;5.43;;
37907;SDS011;23740;51.550;6.846;2023-09-08T11:37:30;7.90;;;7.35;;
37907;SDS011;23740;51.550;6.846;2023-09-08T11:39:59;6.90;;;6.40;;
37907;SDS011;23740;51.550;6.846;2023-09-08T11:42:27;7.05;;;6.55;;
37907;SDS011;23740;51.550;6.846;2023-09-08T11:44:56;9.20;;;8.27;;
37907;SDS011;23740;51.550;6.846;2023-09-08T11:47:24;6.85;;;6.35;;
37907;SDS011;23740;51.550;6.846;2023-09-08T11:49:52;6.90;;;6.40;;
37907;SDS011;23740;51.550;6.846;2023-09-08T11:52:22;7.32;;;6.82;;
37907;SDS011;23740;51.550;6.846;2023-09-08T11:54:50;6.05;;;5.55;;
37907;SDS011;23740;51.550;6.846;2023-09-08T11:57:33;6.07;;;5.57;;
37907;SDS011;23740;51.550;6.846;2023-09-08T12:00:02;5.75;;;5.35;;
37907;SDS011;23740;51.550;6.846;2023-09-08T12:02:33;7.30;;;6.35;;
37907;SDS011;23740;51.550;6.846;2023-09-08T12:05:02;7.63;;;7.03;;
37907;SDS011;23740;51.550;6.846;2023-09-08T12:07:31;6.65;;;6.07;;
37907;SDS011;23740;51.550;6.846;2023-09-08T12:10:06;6.80;;;6.22;;
37907;SDS011;23740;51.550;6.846;2023-09-08T12:12:42;7.60;;;6.80;;
37907;SDS011;23740;51.550;6.846;2023-09-08T12:15:10;6.65;;;6.15;;
37907;SDS011;23740;51.550;6.846;2023-09-08T12:17:47;6.18;;;5.78;;
37907;SDS011;23740;51.550;6.846;2023-09-08T12:20:16;6.90;;;6.38;;
37907;SDS011;23740;51.550;6.846;2023-09-08T12:22:48;6.00;;;5.60;;
37907;SDS011;23740;51.550;6.846;2023-09-08T12:25:17;6.80;;;6.30;;
37907;SDS011;23740;51.550;6.846;2023-09-08T12:27:49;6.63;;;6.07;;
37907;SDS011;23740;51.550;6.846;2023-09-08T12:30:18;8.90;;;7.43;;
37907;SDS011;23740;51.550;6.846;2023-09-08T12:32:47;6.80;;;6.15;;
37907;SDS011;23740;51.550;6.846;2023-09-08T12:35:19;6.00;;;5.47;;
37907;SDS011;23740;51.550;6.846;2023-09-08T12:37:56;6.78;;;6.18;;
37907;SDS011;23740;51.550;6.846;2023-09-08T12:40:25;9.20;;;8.68;;
37907;SDS011;23740;51.550;6.846;2023-09-08T12:42:56;6.20;;;5.75;;
37907;SDS011;23740;51.550;6.846;2023-09-08T12:45:37;6.32;;;5.82;;
37907;SDS011;23740;51.550;6.846;2023-09-08T12:48:05;7.40;;;6.90;;
37907;SDS011;23740;51.550;6.846;2023-09-08T12:50:34;6.20;;;5.70;;
37907;SDS011;23740;51.550;6.846;2023-09-08T12:53:02;7.22;;;6.53;;
37907;SDS011;23740;51.550;6.846;2023-09-08T12:55:30;7.82;;;7.32;;
37907;SDS011;23740;51.550;6.846;2023-09-08T12:57:59;7.93;;;7.38;;
37907;SDS011;23740;51.550;6.846;2023-09-08T13:00:27;6.40;;;5.88;;
37907;SDS011;23740;51.550;6.846;2023-09-08T13:02:55;6.68;;;6.18;;
37907;SDS011;23740;51.550;6.846;2023-09-08T13:05:29;6.50;;;6.10;;
37907;SDS011;23740;51.550;6.846;2023-09-08T13:08:00;6.70;;;6.22;;
37907;SDS011;23740;51.550;6.846;2023-09-08T13:10:28;6.10;;;5.57;;
37907;SDS011;23740;51.550;6.846;2023-09-08T13:12:56;6.40;;;5.88;;
37907;SDS011;23740;51.550;6.846;2023-09-08T13:15:25;7.30;;;6.57;;
37907;SDS011;23740;51.550;6.846;2023-09-08T13:17:53;6.40;;;5.85;;
37907;SDS011;23740;51.550;6.846;2023-09-08T13:20:21;7.20;;;6.65;;
37907;SDS011;23740;51.550;6.846;2023-09-08T13:22:49;6.70;;;6.20;;
37907;SDS011;23740;51.550;6.846;2023-09-08T13:25:17;6.95;;;6.45;;
37907;SDS011;23740;51.550;6.846;2023-09-08T13:27:48;6.15;;;5.75;;
37907;SDS011;23740;51.550;6.846;2023-09-08T13:30:16;6.75;;;6.25;;
37907;SDS011;23740;51.550;6.846;2023-09-08T13:32:46;6.70;;;6.22;;
37907;SDS011;23740;51.550;6.846;2023-09-08T13:35:14;6.80;;;5.57;;
37907;SDS011;23740;51.550;6.846;2023-09-08T13:37:42;7.07;;;6.57;;
37907;SDS011;23740;51.550;6.846;2023-09-08T13:40:14;6.55;;;6.15;;
37907;SDS011;23740;51.550;6.846;2023-09-08T13:42:45;8.30;;;7.70;;
37907;SDS011;23740;51.550;6.846;2023-09-08T13:45:13;6.68;;;6.13;;
37907;SDS011;23740;51.550;6.846;2023-09-08T13:47:41;7.07;;;6.68;;
37907;SDS011;23740;51.550;6.846;2023-09-08T13:50:12;6.57;;;6.18;;
37907;SDS011;23740;51.550;6.846;2023-09-08T13:52:42;6.50;;;5.97;;
37907;SDS011;23740;51.550;6.846;2023-09-08T13:55:13;7.15;;;5.88;;
37907;SDS011;23740;51.550;6.846;2023-09-08T13:57:44;5.85;;;5.22;;
37907;SDS011;23740;51.550;6.846;2023-09-08T14:00:15;5.43;;;5.03;;
37907;SDS011;23740;51.550;6.846;2023-09-08T14:02:49;6.00;;;5.53;;
37907;SDS011;23740;51.550;6.846;2023-09-08T14:05:24;5.88;;;5.38;;
37907;SDS011;23740;51.550;6.846;2023-09-08T14:08:03;5.75;;;5.35;;
37907;SDS011;23740;51.550;6.846;2023-09-08T14:10:48;5.35;;;4.88;;
37907;SDS011;23740;51.550;6.846;2023-09-08T14:13:30;6.15;;;5.65;;
37907;SDS011;23740;51.550;6.846;2023-09-08T14:15:58;5.80;;;5.38;;
37907;SDS011;23740;51.550;6.846;2023-09-08T14:18:28;6.20;;;5.70;;
37907;SDS011;23740;51.550;6.846;2023-09-08T14:20:57;8.60;;;5.55;;
37907;SDS011;23740;51.550;6.846;2023-09-08T14:23:25;5.45;;;4.90;;
37907;SDS011;23740;51.550;6.846;2023-09-08T14:25:55;5.13;;;4.72;;
37907;SDS011;23740;51.550;6.846;2023-09-08T14:28:23;5.95;;;5.45;;
37907;SDS011;23740;51.550;6.846;2023-09-08T14:30:52;5.35;;;4.85;;
37907;SDS011;23740;51.550;6.846;2023-09-08T14:33:20;5.65;;;5.15;;
37907;SDS011;23740;51.550;6.846;2023-09-08T14:35:49;5.78;;;5.28;;
37907;SDS011;23740;51.550;6.846;2023-09-08T14:38:19;5.90;;;5.32;;
37907;SDS011;23740;51.550;6.846;2023-09-08T14:40:53;5.75;;;5.25;;
37907;SDS011;23740;51.550;6.846;2023-09-08T14:43:22;6.03;;;5.28;;
37907;SDS011;23740;51.550;6.846;2023-09-08T14:45:50;5.47;;;4.97;;
37907;SDS011;23740;51.550;6.846;2023-09-08T14:48:19;5.38;;;4.88;;
37907;SDS011;23740;51.550;6.846;2023-09-08T14:50:47;5.18;;;4.78;;
37907;SDS011;23740;51.550;6.846;2023-09-08T14:53:15;6.13;;;5.50;;
37907;SDS011;23740;51.550;6.846;2023-09-08T14:55:44;8.45;;;4.80;;
37907;SDS011;23740;51.550;6.846;2023-09-08T14:58:14;8.07;;;7.47;;
37907;SDS011;23740;51.550;6.846;2023-09-08T15:00:42;6.53;;;5.93;;
37907;SDS011;23740;51.550;6.846;2023-09-08T15:03:10;6.28;;;5.68;;
37907;SDS011;23740;51.550;6.846;2023-09-08T15:05:38;8.43;;;5.85;;
37907;SDS011;23740;51.550;6.846;2023-09-08T15:08:07;6.38;;;5.80;;
37907;SDS011;23740;51.550;6.846;2023-09-08T15:10:43;7.35;;;6.75;;
37907;SDS011;23740;51.550;6.846;2023-09-08T15:13:13;6.20;;;5.60;;
37907;SDS011;23740;51.550;6.846;2023-09-08T15:15:40;5.78;;;5.38;;
37907;SDS011;23740;51.550;6.846;2023-09-08T15:18:09;6.78;;;5.35;;
37907;SDS011;23740;51.550;6.846;2023-09-08T15:20:37;6.32;;;5.40;;
37907;SDS011;23740;51.550;6.846;2023-09-08T15:23:05;7.32;;;6.57;;
37907;SDS011;23740;51.550;6.846;2023-09-08T15:25:33;6.65;;;5.97;;
37907;SDS011;23740;51.550;6.846;2023-09-08T15:28:03;6.45;;;5.93;;
37907;SDS011;23740;51.550;6.846;2023-09-08T15:30:31;7.25;;;6.65;;
37907;SDS011;23740;51.550;6.846;2023-09-08T15:33:01;6.85;;;6.25;;
37907;SDS011;23740;51.550;6.846;2023-09-08T15:35:31;6.60;;;5.80;;
37907;SDS011;23740;51.550;6.846;2023-09-08T15:37:59;8.00;;;6.57;;
37907;SDS011;23740;51.550;6.846;2023-09-08T15:40:30;8.25;;;6.05;;
37907;SDS011;23740;51.550;6.846;2023-09-08T15:42:58;6.97;;;6.25;;
37907;SDS011;23740;51.550;6.846;2023-09-08T15:45:27;7.03;;;6.43;;
37907;SDS011;23740;51.550;6.846;2023-09-08T15:47:55;6.88;;;6.18;;
37907;SDS011;23740;51.550;6.846;2023-09-08T15:50:29;6.32;;;5.82;;
37907;SDS011;23740;51.550;6.846;2023-09-08T15:52:57;6.80;;;6.20;;
37907;SDS011;23740;51.550;6.846;2023-09-08T15:55:34;7.90;;;6.28;;
37907;SDS011;23740;51.550;6.846;2023-09-08T15:58:02;9.57;;;6.97;;
37907;SDS011;23740;51.550;6.846;2023-09-08T16:00:31;7.82;;;5.72;;
37907;SDS011;23740;51.550;6.846;2023-09-08T16:02:59;7.15;;;6.35;;
37907;SDS011;23740;51.550;6.846;2023-09-08T16:05:27;8.43;;;5.57;;
37907;SDS011;23740;51.550;6.846;2023-09-08T16:07:55;8.60;;;6.53;;
37907;SDS011;23740;51.550;6.846;2023-09-08T16:10:23;7.13;;;6.30;;
37907;SDS011;23740;51.550;6.846;2023-09-08T16:12:51;7.13;;;6.43;;
37907;SDS011;23740;51.550;6.846;2023-09-08T16:15:20;6.65;;;5.95;;
37907;SDS011;23740;51.550;6.846;2023-09-08T16:17:49;6.30;;;5.47;;
37907;SDS011;23740;51.550;6.846;2023-09-08T16:20:17;8.23;;;6.20;;
37907;SDS011;23740;51.550;6.846;2023-09-08T16:22:46;6.80;;;6.25;;
37907;SDS011;23740;51.550;6.846;2023-09-08T16:25:14;6.95;;;5.93;;
37907;SDS011;23740;51.550;6.846;2023-09-08T16:27:42;6.95;;;6.25;;
37907;SDS011;23740;51.550;6.846;2023-09-08T16:30:12;7.22;;;5.88;;
37907;SDS011;23740;51.550;6.846;2023-09-08T16:32:40;6.57;;;5.97;;
37907;SDS011;23740;51.550;6.846;2023-09-08T16:35:09;6.65;;;6.10;;
37907;SDS011;23740;51.550;6.846;2023-09-08T16:37:37;7.82;;;6.10;;
37907;SDS011;23740;51.550;6.846;2023-09-08T16:40:15;6.53;;;5.80;;
37907;SDS011;23740;51.550;6.846;2023-09-08T16:42:42;6.85;;;6.25;;
37907;SDS011;23740;51.550;6.846;2023-09-08T16:45:11;5.90;;;5.40;;
37907;SDS011;23740;51.550;6.846;2023-09-08T16:47:41;6.45;;;5.82;;
37907;SDS011;23740;51.550;6.846;2023-09-08T16:50:10;6.53;;;5.75;;
37907;SDS011;23740;51.550;6.846;2023-09-08T16:52:38;6.60;;;5.80;;
37907;SDS011;23740;51.550;6.846;2023-09-08T16:55:06;6.80;;;6.05;;
37907;SDS011;23740;51.550;6.846;2023-09-08T16:57:38;6.68;;;5.63;;
37907;SDS011;23740;51.550;6.846;2023-09-08T17:00:06;6.30;;;5.75;;
37907;SDS011;23740;51.550;6.846;2023-09-08T17:02:35;7.10;;;5.78;;
37907;SDS011;23740;51.550;6.846;2023-09-08T17:05:03;6.05;;;5.45;;
37907;SDS011;23740;51.550;6.846;2023-09-08T17:07:35;7.45;;;5.60;;
37907;SDS011;23740;51.550;6.846;2023-09-08T17:10:04;7.03;;;5.80;;
37907;SDS011;23740;51.550;6.846;2023-09-08T17:12:33;7.05;;;5.72;;
37907;SDS011;23740;51.550;6.846;2023-09-08T17:15:01;6.85;;;6.25;;
37907;SDS011;23740;51.550;6.846;2023-09-08T17:17:32;6.38;;;5.85;;
37907;SDS011;23740;51.550;6.846;2023-09-08T17:20:03;7.38;;;6.25;;
37907;SDS011;23740;51.550;6.846;2023-09-08T17:22:51;7.47;;;6.82;;
37907;SDS011;23740;51.550;6.846;2023-09-08T17:25:19;9.00;;;6.28;;
37907;SDS011;23740;51.550;6.846;2023-09-08T17:27:47;16.23;;;14.35;;
37907;SDS011;23740;51.550;6.846;2023-09-08T17:30:15;9.32;;;8.00;;
37907;SDS011;23740;51.550;6.846;2023-09-08T17:32:43;8.43;;;6.13;;
37907;SDS011;23740;51.550;6.846;2023-09-08T17:35:11;9.10;;;7.63;;
37907;SDS011;23740;51.550;6.846;2023-09-08T17:37:48;7.32;;;6.63;;
37907;SDS011;23740;51.550;6.846;2023-09-08T17:40:17;7.15;;;6.40;;
37907;SDS011;23740;51.550;6.846;2023-09-08T17:42:45;7.75;;;6.80;;
37907;SDS011;23740;51.550;6.846;2023-09-08T17:45:13;6.97;;;6.32;;
37907;SDS011;23740;51.550;6.846;2023-09-08T17:47:41;7.63;;;6.82;;
37907;SDS011;23740;51.550;6.846;2023-09-08T17:50:09;7.57;;;6.88;;
37907;SDS011;23740;51.550;6.846;2023-09-08T17:52:37;7.45;;;6.50;;
37907;SDS011;23740;51.550;6.846;2023-09-08T17:55:06;6.75;;;6.07;;
37907;SDS011;23740;51.550;6.846;2023-09-08T17:57:35;8.10;;;7.30;;
37907;SDS011;23740;51.550;6.846;2023-09-08T18:00:04;7.93;;;7.05;;
37907;SDS011;23740;51.550;6.846;2023-09-08T18:02:32;10.43;;;8.27;;
37907;SDS011;23740;51.550;6.846;2023-09-08T18:05:00;8.07;;;7.38;;
37907;SDS011;23740;51.550;6.846;2023-09-08T18:07:28;8.82;;;6.97;;
37907;SDS011;23740;51.550;6.846;2023-09-08T18:09:57;8.30;;;7.50;;
37907;SDS011;23740;51.550;6.846;2023-09-08T18:12:35;8.18;;;7.45;;
37907;SDS011;23740;51.550;6.846;2023-09-08T18:15:13;10.10;;;8.40;;
37907;SDS011;23740;51.550;6.846;2023-09-08T18:17:43;8.50;;;7.70;;
37907;SDS011;23740;51.550;6.846;2023-09-08T18:20:25;17.27;;;12.38;;
37907;SDS011;23740;51.550;6.846;2023-09-08T18:22:53;9.60;;;8.60;;
37907;SDS011;23740;51.550;6.846;2023-09-08T18:25:21;9.70;;;8.45;;
37907;SDS011;23740;51.550;6.846;2023-09-08T18:27:50;8.90;;;8.00;;
37907;SDS011;23740;51.550;6.846;2023-09-08T18:30:18;10.35;;;8.00;;
37907;SDS011;23740;51.550;6.846;2023-09-08T18:32:46;8.50;;;7.60;;
37907;SDS011;23740;51.550;6.846;2023-09-08T18:35:14;11.32;;;9.05;;
37907;SDS011;23740;51.550;6.846;2023-09-08T18:37:42;9.82;;;8.82;;
37907;SDS011;23740;51.550;6.846;2023-09-08T18:40:10;11.30;;;9.98;;
37907;SDS011;23740;51.550;6.846;2023-09-08T18:42:38;14.05;;;10.35;;
37907;SDS011;23740;51.550;6.846;2023-09-08T18:45:08;15.52;;;12.27;;
37907;SDS011;23740;51.550;6.846;2023-09-08T18:47:36;15.40;;;13.02;;
37907;SDS011;23740;51.550;6.846;2023-09-08T18:50:04;14.98;;;12.25;;
37907;SDS011;23740;51.550;6.846;2023-09-08T18:52:33;12.68;;;10.52;;
37907;SDS011;23740;51.550;6.846;2023-09-08T18:55:01;12.43;;;11.02;;
37907;SDS011;23740;51.550;6.846;2023-09-08T18:57:30;11.43;;;9.90;;
37907;SDS011;23740;51.550;6.846;2023-09-08T18:59:58;10.10;;;8.68;;
37907;SDS011;23740;51.550;6.846;2023-09-08T19:02:27;10.35;;;9.13;;
37907;SDS011;23740;51.550;6.846;2023-09-08T19:04:55;9.80;;;8.80;;
37907;SDS011;23740;51.550;6.846;2023-09-08T19:07:23;10.38;;;8.82;;
37907;SDS011;23740;51.550;6.846;2023-09-08T19:09:51;9.73;;;8.80;;
37907;SDS011;23740;51.550;6.846;2023-09-08T19:12:25;11.27;;;9.77;;
37907;SDS011;23740;51.550;6.846;2023-09-08T19:14:53;10.93;;;9.32;;
37907;SDS011;23740;51.550;6.846;2023-09-08T19:17:22;9.68;;;8.70;;
37907;SDS011;23740;51.550;6.846;2023-09-08T19:19:51;9.25;;;8.27;;
37907;SDS011;23740;51.550;6.846;2023-09-08T19:22:30;9.40;;;8.40;;
37907;SDS011;23740;51.550;6.846;2023-09-08T19:24:58;9.32;;;8.30;;
37907;SDS011;23740;51.550;6.846;2023-09-08T19:27:30;11.45;;;8.90;;
37907;SDS011;23740;51.550;6.846;2023-09-08T19:30:01;10.27;;;7.78;;
37907;SDS011;23740;51.550;6.846;2023-09-08T19:32:32;8.55;;;7.63;;
37907;SDS011;23740;51.550;6.846;2023-09-08T19:35:01;8.85;;;7.95;;
37907;SDS011;23740;51.550;6.846;2023-09-08T19:37:30;10.07;;;9.13;;
37907;SDS011;23740;51.550;6.846;2023-09-08T19:39:58;9.05;;;8.15;;
37907;SDS011;23740;51.550;6.846;2023-09-08T19:42:26;10.80;;;8.30;;
37907;SDS011;23740;51.550;6.846;2023-09-08T19:44:54;9.13;;;8.23;;
37907;SDS011;23740;51.550;6.846;2023-09-08T19:47:22;8.77;;;7.97;;
37907;SDS011;23740;51.550;6.846;2023-09-08T19:49:49;11.40;;;8.57;;
37907;SDS011;23740;51.550;6.846;2023-09-08T19:52:19;10.48;;;8.70;;
37907;SDS011;23740;51.550;6.846;2023-09-08T19:54:47;11.23;;;9.00;;
37907;SDS011;23740;51.550;6.846;2023-09-08T19:57:15;9.30;;;8.02;;
37907;SDS011;23740;51.550;6.846;2023-09-08T19:59:43;10.38;;;8.25;;
37907;SDS011;23740;51.550;6.846;2023-09-08T20:02:11;9.80;;;8.35;;
37907;SDS011;23740;51.550;6.846;2023-09-08T20:04:38;9.70;;;7.72;;
37907;SDS011;23740;51.550;6.846;2023-09-08T20:07:08;10.38;;;7.53;;
37907;SDS011;23740;51.550;6.846;2023-09-08T20:09:38;9.23;;;8.00;;
37907;SDS011;23740;51.550;6.846;2023-09-08T20:12:06;8.27;;;7.15;;
37907;SDS011;23740;51.550;6.846;2023-09-08T20:14:34;9.45;;;7.55;;
37907;SDS011;23740;51.550;6.846;2023-09-08T20:17:02;8.05;;;7.25;;
37907;SDS011;23740;51.550;6.846;2023-09-08T20:19:30;9.65;;;7.88;;
37907;SDS011;23740;51.550;6.846;2023-09-08T20:21:58;11.27;;;8.02;;
37907;SDS011;23740;51.550;6.846;2023-09-08T20:24:27;9.05;;;8.00;;
37907;SDS011;23740;51.550;6.846;2023-09-08T20:26:56;9.07;;;7.75;;
37907;SDS011;23740;51.550;6.846;2023-09-08T20:29:24;8.35;;;7.60;;
37907;SDS011;23740;51.550;6.846;2023-09-08T20:31:54;8.88;;;7.55;;
37907;SDS011;23740;51.550;6.846;2023-09-08T20:34:23;8.63;;;7.53;;
37907;SDS011;23740;51.550;6.846;2023-09-08T20:36:51;9.23;;;7.68;;
37907;SDS011;23740;51.550;6.846;2023-09-08T20:39:20;12.43;;;8.63;;
37907;SDS011;23740;51.550;6.846;2023-09-08T20:41:48;9.88;;;8.88;;
37907;SDS011;23740;51.550;6.846;2023-09-08T20:44:20;10.68;;;9.35;;
37907;SDS011;23740;51.550;6.846;2023-09-08T20:46:55;10.68;;;8.85;;
37907;SDS011;23740;51.550;6.846;2023-09-08T20:49:22;10.18;;;9.02;;
37907;SDS011;23740;51.550;6.846;2023-09-08T20:51:50;9.50;;;8.43;;
37907;SDS011;23740;51.550;6.846;2023-09-08T20:54:18;9.60;;;8.60;;
37907;SDS011;23740;51.550;6.846;2023-09-08T20:56:46;8.40;;;7.20;;
37907;SDS011;23740;51.550;6.846;2023-09-08T20:59:14;10.10;;;7.35;;
37907;SDS011;23740;51.550;6.846;2023-09-08T21:01:44;8.63;;;7.72;;
37907;SDS011;23740;51.550;6.846;2023-09-08T21:04:12;8.68;;;7.78;;
37907;SDS011;23740;51.550;6.846;2023-09-08T21:06:40;9.65;;;7.38;;
37907;SDS011;23740;51.550;6.846;2023-09-08T21:09:07;8.32;;;7.45;;
37907;SDS011;23740;51.550;6.846;2023-09-08T21:11:35;9.73;;;7.50;;
37907;SDS011;23740;51.550;6.846;2023-09-08T21:14:03;8.30;;;7.50;;
37907;SDS011;23740;51.550;6.846;2023-09-08T21:16:33;10.80;;;7.80;;
37907;SDS011;23740;51.550;6.846;2023-09-08T21:19:02;10.35;;;7.72;;
37907;SDS011;23740;51.550;6.846;2023-09-08T21:21:30;8.70;;;7.53;;
37907;SDS011;23740;51.550;6.846;2023-09-08T21:23:58;7.65;;;6.90;;
37907;SDS011;23740;51.550;6.846;2023-09-08T21:26:26;8.18;;;7.38;;
37907;SDS011;23740;51.550;6.846;2023-09-08T21:28:54;8.30;;;7.38;;
37907;SDS011;23740;51.550;6.846;2023-09-08T21:31:22;9.18;;;7.95;;
37907;SDS011;23740;51.550;6.846;2023-09-08T21:33:50;11.50;;;7.80;;
37907;SDS011;23740;51.550;6.846;2023-09-08T21:36:20;10.15;;;7.80;;
37907;SDS011;23740;51.550;6.846;2023-09-08T21:38:48;8.35;;;7.55;;
37907;SDS011;23740;51.550;6.846;2023-09-08T21:41:20;9.38;;;8.10;;
37907;SDS011;23740;51.550;6.846;2023-09-08T21:43:48;8.60;;;7.80;;
37907;SDS011;23740;51.550;6.846;2023-09-08T21:46:16;8.93;;;8.00;;
37907;SDS011;23740;51.550;6.846;2023-09-08T21:48:44;9.30;;;8.40;;
37907;SDS011;23740;51.550;6.846;2023-09-08T21:51:12;10.80;;;7.80;;
37907;SDS011;23740;51.550;6.846;2023-09-08T21:53:41;8.82;;;7.65;;
37907;SDS011;23740;51.550;6.846;2023-09-08T21:56:09;9.00;;;8.20;;
37907;SDS011;23740;51.550;6.846;2023-09-08T21:58:37;9.27;;;8.25;;
37907;SDS011;23740;51.550;6.846;2023-09-08T22:01:05;9.05;;;8.13;;
37907;SDS011;23740;51.550;6.846;2023-09-08T22:03:33;11.27;;;9.15;;
37907;SDS011;23740;51.550;6.846;2023-09-08T22:06:01;8.70;;;7.88;;
37907;SDS011;23740;51.550;6.846;2023-09-08T22:08:30;12.43;;;11.10;;
37907;SDS011;23740;51.550;6.846;2023-09-08T22:11:02;10.13;;;7.90;;
37907;SDS011;23740;51.550;6.846;2023-09-08T22:13:30;10.73;;;8.30;;
37907;SDS011;23740;51.550;6.846;2023-09-08T22:16:02;8.95;;;7.72;;
37907;SDS011;23740;51.550;6.846;2023-09-08T22:18:31;8.82;;;7.78;;
37907;SDS011;23740;51.550;6.846;2023-09-08T22:20:59;9.10;;;7.25;;
37907;SDS011;23740;51.550;6.846;2023-09-08T22:23:28;9.57;;;8.57;;
37907;SDS011;23740;51.550;6.846;2023-09-08T22:25:58;10.40;;;8.60;;
37907;SDS011;23740;51.550;6.846;2023-09-08T22:28:28;8.90;;;7.88;;
37907;SDS011;23740;51.550;6.846;2023-09-08T22:30:55;10.45;;;8.48;;